Time;durP1;ratioP1;P1;durP2;ratioP2;P2;SDS_P1;SDS_P2;PMS_P1;PMS_P2;Temp;Humidity;BMP_temperature;BMP_pressure;BME280_temperature;BME280_humidity;BME280_pressure;Samples;Min_cycle;Max_cycle;Signal;HPM_P1;HPM_P2
2023/08/29 00:02:14;;;;;;;6.93;4.32;;;;;;;-145.63;43.69;39266.75;5026729;28;20322;-68
2023/08/29 00:04:40;;;;;;;6.38;4.13;;;;;;;-145.63;43.83;39262.84;5026865;28;20042;-67
2023/08/29 00:07:05;;;;;;;6.28;3.80;;;;;;;-145.63;43.30;39266.75;5026796;28;20034;-68
2023/08/29 00:09:32;;;;;;;7.32;3.85;;;;;;;-145.63;44.00;39256.97;5026599;28;20045;-67
2023/08/29 00:11:57;;;;;;;6.43;3.97;;;;;;;-145.63;43.87;39258.94;5020946;28;20026;-68
2023/08/29 00:14:23;;;;;;;6.60;4.10;;;;;;;-145.63;44.31;39247.19;5026550;28;20033;-67
2023/08/29 00:16:48;;;;;;;5.00;3.78;;;;;;;-145.63;43.89;39266.75;5026743;28;20025;-68
2023/08/29 00:19:15;;;;;;;6.00;3.72;;;;;;;-145.63;43.94;39196.34;5026373;28;20034;-68
2023/08/29 00:21:45;;;;;;;7.97;3.85;;;;;;;-145.63;44.20;39255.00;5026362;28;20314;-68
2023/08/29 00:24:10;;;;;;;4.47;3.53;;;;;;;-145.63;43.80;39260.88;5026575;28;20049;-67
2023/08/29 00:26:36;;;;;;;4.68;3.28;;;;;;;-145.63;43.75;39231.53;5026057;28;20034;-68
2023/08/29 00:29:02;;;;;;;6.85;4.22;;;;;;;-145.63;44.18;39249.16;5026406;28;20041;-67
2023/08/29 00:31:27;;;;;;;8.95;3.78;;;;;;;-145.63;43.36;39237.41;5025941;28;20040;-66
2023/08/29 00:33:54;;;;;;;5.28;4.00;;;;;;;-145.63;44.06;39237.41;5027199;28;20250;-67
2023/08/29 00:36:20;;;;;;;6.05;3.92;;;;;;;-145.63;43.72;39247.19;5035378;28;20040;-68
2023/08/29 00:38:46;;;;;;;5.32;4.30;;;;;;;-145.63;44.27;39256.97;5024817;28;20046;-68
2023/08/29 00:41:11;;;;;;;9.65;4.20;;;;;;;-145.63;44.40;39266.75;5025855;28;20228;-67
2023/08/29 00:43:37;;;;;;;6.47;4.13;;;;;;;-145.63;44.47;39239.38;5026049;28;20026;-67
2023/08/29 00:46:04;;;;;;;7.60;3.88;;;;;;;-145.63;44.45;39243.28;5024716;28;20246;-67
2023/08/29 00:48:31;;;;;;;8.88;4.38;;;;;;;-145.63;43.97;39255.00;5025813;28;20029;-67
2023/08/29 00:50:57;;;;;;;7.60;4.38;;;;;;;-145.63;44.04;39266.75;5025145;28;20018;-67
2023/08/29 00:53:25;;;;;;;8.40;4.55;;;;;;;-145.63;44.62;39106.38;5025724;28;20026;-67
2023/08/29 00:55:51;;;;;;;6.35;4.15;;;;;;;-145.63;44.75;39282.41;5029771;28;20061;-66
2023/08/29 00:58:18;;;;;;;6.07;4.00;;;;;;;-145.63;44.36;39290.22;5029501;28;20070;-67
2023/08/29 01:00:45;;;;;;;4.78;3.85;;;;;;;-145.63;44.51;39256.97;5025700;28;20017;-68
2023/08/29 01:03:10;;;;;;;6.20;3.72;;;;;;;-145.63;45.08;39276.53;5032639;28;20025;-69
2023/08/29 01:05:36;;;;;;;5.80;4.30;;;;;;;-145.63;44.42;39278.47;5024302;28;20025;-68
2023/08/29 01:08:03;;;;;;;4.13;3.60;;;;;;;-145.63;45.47;39270.66;5025489;28;20201;-67
2023/08/29 01:11:11;;;;;;;7.00;3.83;;;;;;;-145.63;45.74;39270.66;5025322;28;20211;-69
2023/08/29 01:13:45;;;;;;;5.60;4.00;;;;;;;-145.63;45.32;39288.25;5003874;28;20038;-68
2023/08/29 01:16:14;;;;;;;6.25;3.97;;;;;;;-145.63;45.03;39325.41;5025375;28;20034;-69
2023/08/29 01:18:40;;;;;;;4.25;3.55;;;;;;;-145.63;44.83;39290.22;5009482;28;20318;-68
2023/08/29 01:21:29;;;;;;;11.13;4.35;;;;;;;-145.63;45.15;39305.88;5025310;28;20256;-69
2023/08/29 01:24:02;;;;;;;6.53;4.07;;;;;;;-145.63;45.24;39260.88;5025561;28;20045;-68
2023/08/29 01:26:29;;;;;;;5.32;4.20;;;;;;;-145.63;44.90;39309.78;5018964;28;20034;-68
2023/08/29 01:28:56;;;;;;;4.68;3.97;;;;;;;-145.63;45.60;39262.84;5025333;28;20030;-68
2023/08/29 01:31:23;;;;;;;5.70;3.30;;;;;;;-145.63;45.26;39256.97;5025300;28;20211;-68
2023/08/29 01:33:49;;;;;;;6.35;3.50;;;;;;;-145.63;44.92;39301.94;5024779;28;20357;-69
2023/08/29 01:36:14;;;;;;;5.82;3.85;;;;;;;-145.63;44.59;39274.56;5036026;28;20052;-69
2023/08/29 01:38:40;;;;;;;6.47;4.07;;;;;;;-145.63;45.28;39215.91;5035276;28;20018;-69
2023/08/29 01:41:06;;;;;;;6.50;4.45;;;;;;;-145.63;45.04;39274.56;5037576;28;20045;-68
2023/08/29 01:43:31;;;;;;;8.30;4.63;;;;;;;-145.63;45.55;39272.63;5024855;28;20140;-69
2023/08/29 01:45:57;;;;;;;7.68;4.20;;;;;;;-145.63;45.47;39290.22;5023634;28;20033;-69
2023/08/29 01:48:23;;;;;;;5.88;3.97;;;;;;;-145.63;45.99;39290.22;5024588;28;20034;-69
2023/08/29 01:50:48;;;;;;;7.40;4.32;;;;;;;-145.63;46.13;39272.63;5017748;28;20084;-69
2023/08/29 01:53:14;;;;;;;8.23;4.93;;;;;;;-145.63;46.22;39268.72;5024629;28;20080;-68
2023/08/29 01:55:40;;;;;;;7.63;4.07;;;;;;;-145.63;47.07;39294.13;5023373;28;20036;-68
2023/08/29 01:58:07;;;;;;;5.93;4.53;;;;;;;-145.63;46.48;39298.03;5025000;28;20034;-68
2023/08/29 02:00:34;;;;;;;7.55;4.18;;;;;;;-145.63;46.36;39286.31;5006985;28;20318;-68
2023/08/29 02:03:00;;;;;;;7.57;5.07;;;;;;;-145.63;46.64;39305.88;5024578;28;20052;-68
2023/08/29 02:05:26;;;;;;;7.07;4.78;;;;;;;-145.63;46.50;39278.47;5024352;28;20041;-68
2023/08/29 02:07:51;;;;;;;8.55;5.07;;;;;;;-145.63;46.72;39303.91;5024233;28;20389;-67
2023/08/29 02:10:17;;;;;;;7.63;5.20;;;;;;;-145.63;46.28;39307.81;5024297;28;20048;-68
2023/08/29 02:12:44;;;;;;;9.00;5.57;;;;;;;-145.63;46.19;39296.09;5024264;28;20339;-68
2023/08/29 02:15:10;;;;;;;8.75;5.43;;;;;;;-145.63;46.33;39278.47;5024277;28;20034;-68
2023/08/29 02:17:41;;;;;;;;;;;;;;;-145.63;46.38;39262.84;5024581;28;20275;-68
2023/08/29 02:20:08;;;;;;;11.10;5.78;;;;;;;-145.63;46.63;39290.22;5021834;28;19979;-69
2023/08/29 02:22:33;;;;;;;10.35;5.32;;;;;;;-145.63;46.16;39309.78;5031552;28;20318;-67
2023/08/29 02:25:02;;;;;;;10.18;5.13;;;;;;;-145.63;46.14;39294.13;5025876;28;20045;-68
2023/08/29 02:27:29;;;;;;;13.35;6.13;;;;;;;-145.63;47.00;39284.34;5025624;28;20036;-67
2023/08/29 02:29:55;;;;;;;8.20;5.53;;;;;;;-145.63;46.69;39286.31;5023969;28;20018;-67
2023/08/29 02:32:21;;;;;;;9.35;5.78;;;;;;;-145.63;46.71;39307.81;5023904;28;20044;-67
2023/08/29 02:34:46;;;;;;;11.15;5.78;;;;;;;-145.63;46.43;39288.25;5024317;28;20125;-67
2023/08/29 02:37:12;;;;;;;10.32;6.22;;;;;;;-145.63;46.80;39307.81;5020537;28;20075;-67
2023/08/29 02:39:38;;;;;;;10.70;5.45;;;;;;;-145.63;47.01;39311.72;5023565;28;20068;-68
2023/08/29 02:42:03;;;;;;;6.57;5.00;;;;;;;-145.63;46.81;39262.84;5023702;28;20029;-67
2023/08/29 02:44:29;;;;;;;8.65;4.90;;;;;;;-145.63;46.58;39301.94;5023769;28;20022;-67
2023/08/29 02:46:55;;;;;;;9.75;5.40;;;;;;;-145.63;46.91;39311.72;5023597;28;20026;-67
2023/08/29 02:49:20;;;;;;;6.75;4.97;;;;;;;-145.63;46.35;39303.91;5024149;28;20302;-67
2023/08/29 02:51:46;;;;;;;10.20;5.78;;;;;;;-145.63;47.03;39294.13;5023486;28;20084;-67
2023/08/29 02:54:11;;;;;;;9.18;5.25;;;;;;;-145.63;46.84;39266.75;5023439;28;20041;-67
2023/08/29 02:56:37;;;;;;;9.60;5.18;;;;;;;-145.63;46.51;39307.81;5022444;28;20030;-67
2023/08/29 02:59:03;;;;;;;7.95;5.20;;;;;;;-145.63;46.69;39135.72;5023384;28;20322;-68
2023/08/29 03:01:28;;;;;;;7.13;4.80;;;;;;;-145.63;46.14;39313.69;5023267;28;20111;-68
2023/08/29 03:03:54;;;;;;;7.97;4.88;;;;;;;-145.63;46.25;39272.63;5024113;28;20037;-69
2023/08/29 03:06:20;;;;;;;7.22;5.03;;;;;;;-145.63;46.21;39309.78;5023449;28;20210;-68
2023/08/29 03:08:46;;;;;;;6.93;4.68;;;;;;;-145.63;45.76;39270.66;5023266;28;20022;-69
2023/08/29 03:11:11;;;;;;;6.20;4.65;;;;;;;-145.63;45.53;39266.75;5023186;28;20222;-67
2023/08/29 03:13:37;;;;;;;13.80;5.38;;;;;;;-145.63;45.79;39284.34;5021826;28;20025;-67
2023/08/29 03:16:14;;;;;;;6.35;4.68;;;;;;;-145.63;45.63;38650.75;5023465;28;20040;-68
2023/08/29 03:18:39;;;;;;;10.40;5.53;;;;;;;-145.63;45.62;39247.19;5022076;28;20254;-69
2023/08/29 03:21:06;;;;;;;9.70;5.30;;;;;;;-145.63;45.41;39270.66;5023233;28;20030;-68
2023/08/29 03:23:33;;;;;;;5.53;4.70;;;;;;;-145.63;45.26;39219.81;5023170;28;20042;-68
2023/08/29 03:26:06;;;;;;;7.05;4.95;;;;;;;-145.63;45.56;39278.47;5023385;28;20089;-68
2023/08/29 03:28:33;;;;;;;9.27;4.75;;;;;;;-145.63;44.94;39247.19;5023116;28;20037;-68
2023/08/29 03:31:13;;;;;;;6.65;4.80;;;;;;;-145.63;44.96;39249.16;5023919;28;20018;-69
2023/08/29 03:33:40;;;;;;;7.75;4.53;;;;;;;-145.63;45.30;39272.63;5022358;28;20087;-67
2023/08/29 03:36:07;;;;;;;6.43;4.93;;;;;;;-145.63;45.32;39243.28;5024547;28;20298;-68
2023/08/29 03:38:39;;;;;;;7.45;4.60;;;;;;;-145.63;45.05;39298.03;5031063;28;20033;-68
2023/08/29 03:41:05;;;;;;;8.07;4.45;;;;;;;-145.63;45.38;39251.09;5014598;28;20021;-69
2023/08/29 03:43:33;;;;;;;8.88;5.03;;;;;;;-145.63;45.40;39237.41;5015634;28;20083;-68
2023/08/29 03:46:04;;;;;;;13.18;5.40;;;;;;;-145.63;45.50;39233.50;5021899;28;20221;-68
2023/08/29 03:48:30;;;;;;;9.00;5.13;;;;;;;-145.63;45.37;39247.19;5012839;28;20026;-68
2023/08/29 03:50:58;;;;;;;15.68;5.60;;;;;;;-145.63;45.19;39247.19;5018118;28;20034;-67
2023/08/29 03:53:24;;;;;;;9.52;5.25;;;;;;;-145.63;45.03;39223.72;5022913;28;20026;-68
2023/08/29 03:55:50;;;;;;;12.95;5.38;;;;;;;-145.63;45.06;39255.00;5022880;28;20072;-67
2023/08/29 03:58:16;;;;;;;13.80;6.03;;;;;;;-145.63;44.55;39219.81;5023057;28;20083;-67
2023/08/29 04:00:43;;;;;;;13.82;5.82;;;;;;;-145.63;44.79;39237.41;5026244;28;20049;-68
2023/08/29 04:03:08;;;;;;;11.18;5.45;;;;;;;-145.63;44.68;39227.63;5023098;28;20064;-69
2023/08/29 04:05:37;;;;;;;9.23;5.53;;;;;;;-145.63;44.75;39276.53;5022637;28;20025;-68
2023/08/29 04:08:06;;;;;;;9.68;5.70;;;;;;;-145.63;45.20;39223.72;5023132;28;20061;-68
2023/08/29 04:10:38;;;;;;;7.32;5.18;;;;;;;-145.63;44.54;39198.31;5022889;28;20028;-68
2023/08/29 04:13:04;;;;;;;10.40;5.32;;;;;;;-145.63;44.42;39210.03;5022943;28;20128;-67
2023/08/29 04:15:30;;;;;;;10.75;5.72;;;;;;;-145.63;44.56;39192.44;5022648;28;20076;-69
2023/08/29 04:17:56;;;;;;;7.15;5.47;;;;;;;-145.63;44.20;39204.16;5029003;28;20318;-68
2023/08/29 04:20:22;;;;;;;7.88;5.32;;;;;;;-145.63;44.54;39188.53;5025674;28;20064;-67
2023/08/29 04:22:48;;;;;;;10.52;5.53;;;;;;;-145.63;44.21;39165.06;5030674;28;20038;-67
2023/08/29 04:25:14;;;;;;;12.15;6.03;;;;;;;-145.63;44.24;39170.91;5022926;28;20032;-67
2023/08/29 04:27:41;;;;;;;8.05;5.32;;;;;;;-145.63;44.59;39180.69;5024809;28;20037;-68
2023/08/29 04:30:07;;;;;;;8.02;5.68;;;;;;;-145.63;44.18;39202.22;5024540;28;20044;-66
2023/08/29 04:32:37;;;;;;;8.88;5.68;;;;;;;-145.63;45.10;39200.25;5027587;28;20050;-67
2023/08/29 04:35:05;;;;;;;9.05;4.90;;;;;;;-145.63;44.32;39153.31;5033262;28;20068;-68
2023/08/29 04:37:35;;;;;;;10.40;5.45;;;;;;;-145.63;43.53;39133.75;5029692;28;20021;-68
2023/08/29 04:40:01;;;;;;;7.00;4.22;;;;;;;-145.63;43.53;39141.59;5026164;28;20029;-66
2023/08/29 04:42:28;;;;;;;10.90;5.53;;;;;;;-145.63;43.18;39129.84;5037899;28;20052;-67
2023/08/29 04:44:54;;;;;;;10.52;5.40;;;;;;;-145.63;43.18;39157.22;5025902;28;20025;-67
2023/08/29 04:47:20;;;;;;;10.48;6.10;;;;;;;-145.63;42.60;39157.22;5025921;28;20029;-68
2023/08/29 04:49:46;;;;;;;10.00;5.40;;;;;;;-145.63;42.96;39157.22;5024474;28;20191;-68
2023/08/29 04:52:12;;;;;;;10.02;5.40;;;;;;;-145.63;43.51;39149.41;5026741;28;20034;-68
2023/08/29 04:54:38;;;;;;;9.13;5.00;;;;;;;-145.63;42.81;39131.81;5025537;28;20026;-67
2023/08/29 04:57:04;;;;;;;13.52;5.40;;;;;;;-145.63;42.93;39137.69;5025719;28;20030;-68
2023/08/29 04:59:30;;;;;;;8.70;5.47;;;;;;;-145.63;42.41;39165.06;5025324;28;20033;-67
2023/08/29 05:01:56;;;;;;;9.77;4.97;;;;;;;-145.63;42.15;39157.22;5026520;28;20084;-67
2023/08/29 05:04:21;;;;;;;8.80;5.07;;;;;;;-145.63;42.38;39149.41;5025526;28;20310;-67
2023/08/29 05:06:47;;;;;;;9.50;4.55;;;;;;;-145.63;42.20;39137.69;5025202;28;20277;-67
2023/08/29 05:09:13;;;;;;;9.43;4.38;;;;;;;-145.63;42.58;39116.16;5025417;28;20028;-66
2023/08/29 05:11:38;;;;;;;14.98;5.65;;;;;;;-145.63;42.53;39174.84;5025367;28;20037;-67
2023/08/29 05:14:04;;;;;;;11.55;5.40;;;;;;;-145.63;43.35;39149.41;5024684;28;20164;-68
2023/08/29 05:16:32;;;;;;;12.40;5.53;;;;;;;-145.63;42.75;39137.69;5029795;28;20034;-67
2023/08/29 05:18:58;;;;;;;13.40;5.93;;;;;;;-145.63;42.83;39112.25;5028907;28;20037;-67
2023/08/29 05:21:24;;;;;;;11.48;5.32;;;;;;;-145.63;42.57;39110.28;5034695;28;20042;-68
2023/08/29 05:23:50;;;;;;;13.05;5.38;;;;;;;-145.63;42.71;39118.13;5027192;28;20069;-67
2023/08/29 05:26:15;;;;;;;8.90;5.00;;;;;;;-145.63;42.30;39120.06;5024954;28;20380;-67
2023/08/29 05:28:42;;;;;;;13.05;5.60;;;;;;;-145.63;41.95;39053.59;5024864;28;20210;-68
2023/08/29 05:31:08;;;;;;;7.60;5.35;;;;;;;-145.63;42.01;39133.75;5024703;28;20048;-67
2023/08/29 05:33:33;;;;;;;8.98;5.57;;;;;;;-145.63;42.52;39163.09;5024061;28;20045;-69
2023/08/29 05:35:59;;;;;;;6.43;5.25;;;;;;;-145.63;42.65;39127.91;5033455;28;20040;-68
2023/08/29 05:38:27;;;;;;;11.23;4.70;;;;;;;-145.63;42.73;39204.16;5024448;28;20061;-67
2023/08/29 05:40:52;;;;;;;11.65;5.55;;;;;;;-145.63;42.75;39139.63;5025922;28;20045;-66
2023/08/29 05:43:18;;;;;;;13.77;6.20;;;;;;;-145.63;42.98;39131.81;5024712;28;20105;-67
2023/08/29 05:45:44;;;;;;;8.55;5.22;;;;;;;-145.63;42.62;39135.72;5024270;28;20038;-66
2023/08/29 05:48:10;;;;;;;13.10;5.30;;;;;;;-145.63;43.09;39139.63;5001511;28;20034;-66
2023/08/29 05:50:39;;;;;;;13.50;5.97;;;;;;;-145.63;42.64;39129.84;5024808;28;20194;-67
2023/08/29 05:53:04;;;;;;;11.15;5.65;;;;;;;-145.63;42.48;39178.75;5024761;28;20037;-67
2023/08/29 05:55:30;;;;;;;14.35;5.65;;;;;;;-145.63;42.86;39180.69;5024617;28;20202;-67
2023/08/29 05:57:55;;;;;;;15.45;6.43;;;;;;;-145.63;42.53;39161.13;5023294;28;20068;-67
2023/08/29 06:00:21;;;;;;;16.13;5.20;;;;;;;-145.63;42.54;39165.06;5024010;28;20210;-66
2023/08/29 06:02:47;;;;;;;11.90;5.43;;;;;;;-145.63;42.55;39145.50;5022768;28;20029;-68
2023/08/29 06:05:13;;;;;;;10.15;5.65;;;;;;;-145.63;42.51;39157.22;5015627;28;20029;-67
2023/08/29 06:07:39;;;;;;;10.93;5.18;;;;;;;-145.63;42.70;39149.41;5025174;28;20029;-67
2023/08/29 06:10:08;;;;;;;8.30;6.05;;;;;;;-145.63;42.27;39174.84;5024597;28;20022;-67
2023/08/29 06:12:34;;;;;;;8.75;5.15;;;;;;;-145.63;42.58;39145.50;5024043;28;20302;-67
2023/08/29 06:15:00;;;;;;;12.85;5.30;;;;;;;-145.63;42.84;39157.22;5020740;28;20033;-66
2023/08/29 06:17:26;;;;;;;13.77;5.60;;;;;;;-145.63;42.76;39139.63;5024355;28;20546;-66
2023/08/29 06:19:51;;;;;;;12.20;4.72;;;;;;;-145.63;42.55;39120.06;5023983;28;20376;-66
2023/08/29 06:22:17;;;;;;;11.27;5.13;;;;;;;-145.63;43.01;39180.69;5023911;28;20026;-66
2023/08/29 06:24:43;;;;;;;10.43;5.40;;;;;;;-145.63;42.93;39129.84;5024141;28;20029;-65
2023/08/29 06:27:08;;;;;;;11.93;5.28;;;;;;;-145.63;43.17;39172.88;5022840;28;20337;-65
2023/08/29 06:29:34;;;;;;;13.00;4.72;;;;;;;-145.63;42.44;39145.50;5023970;28;20018;-65
2023/08/29 06:32:00;;;;;;;10.93;5.20;;;;;;;-145.63;43.01;39196.34;5018373;28;20112;-65
2023/08/29 06:34:25;;;;;;;10.20;4.95;;;;;;;-145.63;42.46;39122.03;5025071;28;20030;-65
2023/08/29 06:36:51;;;;;;;10.43;5.15;;;;;;;-145.63;42.48;39149.41;5024603;28;20388;-65
2023/08/29 06:39:17;;;;;;;18.02;6.53;;;;;;;-145.63;42.69;39102.47;5024051;28;20029;-67
2023/08/29 06:41:43;;;;;;;15.30;5.40;;;;;;;-145.63;43.03;39151.38;5022443;28;20038;-65
2023/08/29 06:44:09;;;;;;;13.95;4.80;;;;;;;-145.63;42.24;39143.53;5037109;28;20061;-66
2023/08/29 06:46:35;;;;;;;9.40;4.95;;;;;;;-145.63;42.33;39098.56;5025610;28;20022;-64
2023/08/29 06:49:01;;;;;;;10.70;4.95;;;;;;;-145.63;42.29;39127.91;5027082;28;20257;-65
2023/08/29 06:51:26;;;;;;;8.90;4.53;;;;;;;-145.63;42.41;39106.38;5026494;28;20034;-66
2023/08/29 06:53:52;;;;;;;13.23;6.13;;;;;;;-145.63;42.60;39122.03;5033990;28;20033;-66
2023/08/29 06:56:18;;;;;;;10.93;4.88;;;;;;;-145.63;42.98;39114.22;5027051;28;20030;-65
2023/08/29 06:58:44;;;;;;;31.35;23.85;;;;;;;-145.63;42.72;39120.06;5028446;28;20025;-65
2023/08/29 07:01:10;;;;;;;11.40;4.93;;;;;;;-145.63;42.66;39137.69;5032264;28;20038;-65
2023/08/29 07:03:35;;;;;;;11.35;4.88;;;;;;;-145.63;42.60;39110.28;5023066;28;20045;-66
2023/08/29 07:06:01;;;;;;;14.90;4.75;;;;;;;-145.63;42.42;39090.75;5027643;28;20055;-66
2023/08/29 07:08:27;;;;;;;11.65;5.05;;;;;;;-145.63;42.92;39061.41;5026508;28;20302;-66
2023/08/29 07:10:53;;;;;;;11.88;5.30;;;;;;;-145.63;42.58;39118.13;5027204;28;20036;-66
2023/08/29 07:13:18;;;;;;;16.55;5.88;;;;;;;-145.63;42.08;39112.25;5023025;28;20214;-66
2023/08/29 07:15:44;;;;;;;10.65;4.95;;;;;;;-145.63;42.47;39075.09;5022836;28;20217;-64
2023/08/29 07:18:10;;;;;;;9.80;5.18;;;;;;;-145.63;41.97;39100.50;5022787;28;20026;-65
2023/08/29 07:20:37;;;;;;;9.70;4.65;;;;;;;-145.63;42.14;38926.47;5022579;28;20021;-66
2023/08/29 07:23:03;;;;;;;10.05;4.75;;;;;;;-145.63;42.01;39096.59;5022151;28;20230;-65
2023/08/29 07:25:43;;;;;;;12.98;4.78;;;;;;;-145.63;41.73;39108.34;5023202;28;20093;-66
2023/08/29 07:28:11;;;;;;;10.63;4.72;;;;;;;-145.63;42.43;39133.75;5016548;28;20030;-66
2023/08/29 07:30:47;;;;;;;9.57;4.80;;;;;;;-145.63;41.78;39094.66;5022938;28;20326;-66
2023/08/29 07:33:14;;;;;;;8.23;4.88;;;;;;;-145.63;41.96;39088.78;5028996;28;20037;-66
2023/08/29 07:35:41;;;;;;;9.10;4.40;;;;;;;-145.63;41.58;39102.47;5031176;28;20306;-66
2023/08/29 07:38:07;;;;;;;7.85;5.00;;;;;;;-145.63;41.03;39086.81;5027361;28;20033;-66
2023/08/29 07:40:33;;;;;;;8.18;4.25;;;;;;;-145.63;41.48;38946.03;5027436;28;20025;-66
2023/08/29 07:43:07;;;;;;;11.95;4.82;;;;;;;-145.63;41.69;39082.91;5030487;28;20051;-65
2023/08/29 07:45:34;;;;;;;8.02;4.63;;;;;;;-145.63;41.30;39028.16;5022526;28;20048;-65
2023/08/29 07:48:01;;;;;;;9.43;4.65;;;;;;;-145.63;40.93;39051.63;5023023;28;20318;-66
2023/08/29 07:50:27;;;;;;;9.63;4.03;;;;;;;-145.63;41.16;39051.63;5022690;28;20038;-65
2023/08/29 07:52:53;;;;;;;11.02;5.20;;;;;;;-145.63;40.87;39037.94;5014078;28;20381;-65
2023/08/29 07:55:19;;;;;;;10.65;4.72;;;;;;;-145.63;40.97;39061.41;5017311;28;20085;-66
2023/08/29 07:57:45;;;;;;;15.88;4.95;;;;;;;-145.63;40.72;39032.06;5019153;28;20086;-67
2023/08/29 08:00:12;;;;;;;7.78;4.60;;;;;;;-145.63;40.81;39063.34;5023909;28;20034;-65
2023/08/29 08:02:41;;;;;;;8.27;4.78;;;;;;;-145.63;41.08;39039.88;5026761;28;20068;-66
2023/08/29 08:05:16;;;;;;;10.18;4.97;;;;;;;-145.63;40.95;39055.53;5027928;28;20029;-66
2023/08/29 08:07:44;;;;;;;5.95;4.70;;;;;;;-145.63;41.29;39055.53;5028869;28;20330;-66
2023/08/29 08:10:11;;;;;;;12.10;4.80;;;;;;;-145.63;40.81;39004.69;5026235;28;20033;-66
2023/08/29 08:12:38;;;;;;;8.00;4.70;;;;;;;-145.63;41.00;39053.59;5028089;28;20038;-67
2023/08/29 08:15:06;;;;;;;9.45;4.32;;;;;;;-145.63;40.89;39026.19;5034787;28;20236;-66
2023/08/29 08:17:32;;;;;;;14.27;5.50;;;;;;;-145.63;40.93;39032.06;5031209;28;20030;-65
2023/08/29 08:19:58;;;;;;;13.13;5.70;;;;;;;-145.63;40.98;39030.13;5026431;28;20026;-67
2023/08/29 08:22:24;;;;;;;9.73;4.47;;;;;;;-145.63;40.85;39043.81;5025693;28;20029;-65
2023/08/29 08:24:50;;;;;;;13.50;5.38;;;;;;;-145.63;40.96;39086.81;5026272;28;20053;-65
2023/08/29 08:27:17;;;;;;;12.32;5.40;;;;;;;-145.63;41.28;39051.63;5022660;28;20029;-65
2023/08/29 08:29:42;;;;;;;8.13;4.80;;;;;;;-145.63;41.45;39051.63;5026115;28;20030;-64
2023/08/29 08:32:08;;;;;;;9.25;5.00;;;;;;;-145.63;40.85;39032.06;5025780;28;20030;-65
2023/08/29 08:34:34;;;;;;;7.95;4.70;;;;;;;-145.63;40.99;39047.72;5026118;28;20341;-64
2023/08/29 08:37:00;;;;;;;8.60;5.38;;;;;;;-145.63;40.84;39000.78;5024827;28;20028;-65
2023/08/29 08:39:26;;;;;;;12.45;5.88;;;;;;;-145.63;41.36;39037.94;5024528;28;20022;-64
2023/08/29 08:41:52;;;;;;;9.95;4.70;;;;;;;-145.63;41.52;39032.06;5025770;28;20025;-65
2023/08/29 08:44:21;;;;;;;8.75;4.75;;;;;;;-145.63;41.00;38572.53;5024458;28;20038;-64
2023/08/29 08:46:47;;;;;;;10.80;5.53;;;;;;;-145.63;41.48;39008.59;5025779;28;20036;-65
2023/08/29 08:49:13;;;;;;;8.50;5.53;;;;;;;-145.63;41.43;39024.25;5025427;28;20056;-64
2023/08/29 08:51:40;;;;;;;10.35;4.85;;;;;;;-145.63;41.01;39018.38;5025377;28;20034;-65
2023/08/29 08:54:07;;;;;;;10.02;5.50;;;;;;;-145.63;41.33;39018.38;5025671;28;20030;-65
2023/08/29 08:56:34;;;;;;;10.73;4.82;;;;;;;-145.63;41.36;39000.78;5025388;28;20026;-65
2023/08/29 08:59:00;;;;;;;8.90;5.25;;;;;;;-145.63;41.73;38998.81;5025693;28;20033;-64
2023/08/29 09:01:26;;;;;;;11.45;5.45;;;;;;;-145.63;41.87;39016.44;5025415;28;20033;-64
2023/08/29 09:03:52;;;;;;;11.68;5.78;;;;;;;-145.63;40.98;39008.59;5025422;28;20030;-64
2023/08/29 09:06:18;;;;;;;9.70;5.25;;;;;;;-145.63;41.12;39004.69;5020564;28;20027;-65
2023/08/29 09:08:44;;;;;;;17.88;7.45;;;;;;;-145.63;41.57;38985.13;5018087;28;20025;-64
2023/08/29 09:11:10;;;;;;;13.98;5.57;;;;;;;-145.63;41.56;39014.47;5024721;28;20029;-64
2023/08/29 09:13:44;;;;;;;10.10;5.55;;;;;;;-145.63;41.23;38994.91;5024371;28;20014;-64
2023/08/29 09:16:10;;;;;;;11.73;6.20;;;;;;;-145.63;41.10;39008.59;5024600;28;20056;-63
2023/08/29 09:18:36;;;;;;;12.93;6.07;;;;;;;-145.63;41.13;38973.41;5025369;28;20040;-63
2023/08/29 09:21:04;;;;;;;7.55;5.43;;;;;;;-145.63;41.29;39008.59;5025045;28;20093;-66
2023/08/29 09:23:37;;;;;;;10.50;4.90;;;;;;;-145.63;41.39;39010.56;5024464;28;20342;-63
2023/08/29 09:26:04;;;;;;;13.85;5.65;;;;;;;-145.63;41.62;39020.34;5022475;28;20105;-64
2023/08/29 09:28:30;;;;;;;8.48;5.47;;;;;;;-145.63;41.64;39022.28;5024281;28;20064;-64
2023/08/29 09:31:04;;;;;;;12.07;5.28;;;;;;;-145.63;41.66;39057.50;5013617;28;20258;-65
2023/08/29 09:33:30;;;;;;;11.38;5.40;;;;;;;-145.63;41.35;39020.34;5019107;28;20055;-67
2023/08/29 09:35:55;;;;;;;11.32;5.07;;;;;;;-145.63;41.42;39016.44;5016825;28;20081;-66
2023/08/29 09:38:22;;;;;;;13.27;5.88;;;;;;;-145.63;41.09;39014.47;5024639;28;20040;-64
2023/08/29 09:40:52;;;;;;;16.30;5.57;;;;;;;-145.63;41.69;38992.97;5022023;28;20052;-65
2023/08/29 09:43:18;;;;;;;13.57;5.07;;;;;;;-145.63;41.29;38998.81;5024191;28;20030;-64
2023/08/29 09:45:52;;;;;;;12.00;5.70;;;;;;;-145.63;41.64;38625.31;5020588;28;20310;-65
2023/08/29 09:48:18;;;;;;;16.25;6.03;;;;;;;-145.63;41.92;38975.34;5018395;28;20038;-65
2023/08/29 09:50:45;;;;;;;9.20;5.32;;;;;;;-145.63;41.59;38996.88;5021622;28;20087;-66
2023/08/29 09:53:19;;;;;;;9.57;5.05;;;;;;;-145.63;41.46;38973.41;5011445;28;20357;-66
2023/08/29 09:55:49;;;;;;;8.25;5.50;;;;;;;-145.63;41.34;38998.81;5022288;28;20088;-65
2023/08/29 09:58:21;;;;;;;8.98;4.93;;;;;;;-145.63;41.44;38989.03;5036442;28;20056;-67
2023/08/29 10:00:48;;;;;;;10.00;4.78;;;;;;;-145.63;41.14;38981.22;5023671;28;20034;-67
2023/08/29 10:03:16;;;;;;;8.15;4.38;;;;;;;-145.63;41.36;38965.56;5016160;28;20057;-65
2023/08/29 10:05:45;;;;;;;10.38;5.53;;;;;;;-145.63;41.66;39006.66;5022853;28;20071;-66
2023/08/29 10:08:11;;;;;;;9.80;5.40;;;;;;;-145.63;41.68;39012.50;5023116;28;20030;-65
2023/08/29 10:10:40;;;;;;;12.07;5.25;;;;;;;-145.63;41.56;39002.72;5023688;28;20032;-65
2023/08/29 10:13:08;;;;;;;15.88;5.88;;;;;;;-145.63;42.34;39008.59;5024316;28;20030;-66
2023/08/29 10:15:34;;;;;;;16.75;5.63;;;;;;;-145.63;41.75;38996.88;5011813;28;20065;-66
2023/08/29 10:18:01;;;;;;;11.30;4.90;;;;;;;-145.63;41.49;38991.00;5014564;28;20030;-66
2023/08/29 10:20:28;;;;;;;20.05;5.93;;;;;;;-145.63;41.04;38973.41;5024035;28;20225;-65
2023/08/29 10:22:54;;;;;;;7.53;5.25;;;;;;;-145.63;41.63;38992.97;5023883;28;20049;-66
2023/08/29 10:25:24;;;;;;;10.43;4.82;;;;;;;-145.63;41.08;38975.34;5023173;28;20045;-68
2023/08/29 10:27:50;;;;;;;12.88;5.43;;;;;;;-145.63;41.38;38973.41;5022560;28;20110;-65
2023/08/29 10:30:16;;;;;;;13.07;5.40;;;;;;;-145.63;41.13;39008.59;5023992;28;20022;-65
2023/08/29 10:32:44;;;;;;;8.52;5.07;;;;;;;-145.63;41.44;38977.31;5023619;28;20120;-65
2023/08/29 10:35:22;;;;;;;11.35;5.80;;;;;;;-145.63;41.38;39016.44;5023118;28;20065;-64
2023/08/29 10:37:52;;;;;;;10.55;5.47;;;;;;;-145.63;41.58;38992.97;5022404;28;20037;-65
2023/08/29 10:40:19;;;;;;;12.50;5.13;;;;;;;-145.63;41.45;38951.88;5022754;28;20030;-67
2023/08/29 10:42:53;;;;;;;13.65;6.05;;;;;;;-145.63;41.31;38946.03;5023487;28;20357;-66
2023/08/29 10:45:41;;;;;;;10.15;5.32;;;;;;;-145.63;41.80;38977.31;5023122;28;20037;-65
2023/08/29 10:48:07;;;;;;;17.38;5.32;;;;;;;-145.63;41.39;38949.94;5023628;28;20104;-65
2023/08/29 10:50:33;;;;;;;18.13;5.38;;;;;;;-145.63;41.43;38934.28;5023265;28;20045;-66
2023/08/29 10:52:59;;;;;;;10.68;6.22;;;;;;;-145.63;41.05;38967.53;5020505;28;20054;-65
2023/08/29 10:55:31;;;;;;;13.88;6.30;;;;;;;-145.63;41.17;38971.44;5023341;28;20299;-66
2023/08/29 10:57:58;;;;;;;11.18;4.97;;;;;;;-145.63;41.26;38740.69;5020753;28;20037;-65
2023/08/29 11:00:42;;;;;;;6.63;5.00;;;;;;;-145.63;41.61;38989.03;5023275;28;20022;-66
2023/08/29 11:03:08;;;;;;;12.75;5.50;;;;;;;-145.63;41.53;38934.28;5023474;28;20112;-66
2023/08/29 11:05:40;;;;;;;12.07;5.30;;;;;;;-145.63;41.40;38930.38;5022353;28;20269;-65
2023/08/29 11:08:21;;;;;;;11.23;5.57;;;;;;;-145.63;41.61;38920.59;5023538;28;20140;-66
2023/08/29 11:11:09;;;;;;;9.10;4.82;;;;;;;-145.63;41.87;38930.38;5023089;28;20021;-65
2023/08/29 11:13:34;;;;;;;11.02;5.25;;;;;;;-145.63;41.36;38951.88;5023123;28;20137;-66
2023/08/29 11:16:00;;;;;;;10.93;5.45;;;;;;;-145.63;41.63;38942.13;5020733;28;20042;-67